createdAt,value
2023-01-17T00:03:04.826Z,975.89
2023-01-17T00:08:05.535Z,975.77
2023-01-17T00:13:06.254Z,975.72
2023-01-17T00:18:06.975Z,975.69
2023-01-17T00:23:07.698Z,975.67
2023-01-17T00:28:08.381Z,975.62
2023-01-17T00:33:09.162Z,975.61
2023-01-17T00:43:58.588Z,975.46
2023-01-17T00:48:59.321Z,975.42
2023-01-17T00:54:00.039Z,975.48
2023-01-17T00:59:00.758Z,975.44
2023-01-17T01:04:09.531Z,975.44
2023-01-17T01:09:02.194Z,975.37
2023-01-17T01:14:02.897Z,975.38
2023-01-17T01:19:03.638Z,975.33
2023-01-17T01:24:04.469Z,975.28
2023-01-17T01:29:05.201Z,975.29
2023-01-17T01:34:05.979Z,975.22
2023-01-17T01:39:06.695Z,975.17
2023-01-17T01:44:07.453Z,975.16
2023-01-17T01:49:08.181Z,975.09
2023-01-17T01:54:08.994Z,975.07
2023-01-17T01:59:09.878Z,974.99
2023-01-17T02:15:48.036Z,974.89
2023-01-17T02:32:26.218Z,974.86
2023-01-17T02:37:26.954Z,974.84
2023-01-17T02:42:27.805Z,974.85
2023-01-17T02:47:28.624Z,974.82
2023-01-17T02:52:29.373Z,974.88
2023-01-17T02:57:30.101Z,974.86
2023-01-17T03:02:30.959Z,974.97
2023-01-17T03:07:31.752Z,974.99
2023-01-17T03:12:32.536Z,975.00
2023-01-17T03:17:33.268Z,975.02
2023-01-17T03:22:33.980Z,975.00
2023-01-17T03:27:34.780Z,974.98
2023-01-17T03:32:35.573Z,974.90
2023-01-17T03:37:36.331Z,974.88
2023-01-17T03:42:37.047Z,974.91
2023-01-17T03:47:37.789Z,974.92
2023-01-17T03:52:38.528Z,974.93
2023-01-17T03:57:39.278Z,974.96
2023-01-17T04:02:40.163Z,974.99
2023-01-17T04:07:40.896Z,975.03
2023-01-17T04:12:41.626Z,975.13
2023-01-17T04:17:42.369Z,975.07
2023-01-17T04:22:43.103Z,975.09
2023-01-17T04:27:44.529Z,975.11
2023-01-17T04:32:44.968Z,975.12
2023-01-17T04:37:45.789Z,975.14
2023-01-17T04:42:46.564Z,975.17
2023-01-17T04:47:47.260Z,975.24
2023-01-17T04:52:47.948Z,975.33
2023-01-17T04:57:49.105Z,975.42
2023-01-17T05:02:49.478Z,975.41
2023-01-17T05:07:50.263Z,975.45
2023-01-17T05:12:50.917Z,975.50
2023-01-17T05:17:51.665Z,975.58
2023-01-17T05:22:52.375Z,975.64
2023-01-17T05:27:53.104Z,975.74
2023-01-17T05:32:53.913Z,975.83
2023-01-17T05:37:54.604Z,975.90
2023-01-17T05:42:56.054Z,975.95
2023-01-17T05:47:56.296Z,975.92
2023-01-17T05:52:56.997Z,975.98
2023-01-17T05:58:03.117Z,976.16
2023-01-17T06:02:58.316Z,976.25
2023-01-17T06:07:59.608Z,976.33
2023-01-17T06:12:59.885Z,976.38
2023-01-17T06:18:00.811Z,976.45
2023-01-17T06:23:01.524Z,976.46
2023-01-17T06:28:02.605Z,976.42
2023-01-17T06:33:02.830Z,976.59
2023-01-17T06:38:03.505Z,976.56
2023-01-17T06:43:04.296Z,976.61
2023-01-17T06:48:05.007Z,976.65
2023-01-17T06:53:05.662Z,976.77
2023-01-17T06:58:06.376Z,976.86
2023-01-17T07:03:14.006Z,977.00
2023-01-17T07:08:07.616Z,977.01
2023-01-17T07:13:08.280Z,977.08
2023-01-17T07:18:08.946Z,977.08
2023-01-17T07:23:09.629Z,977.17
2023-01-17T07:28:10.258Z,977.20
2023-01-17T07:33:10.922Z,977.26
2023-01-17T07:38:11.583Z,977.33
2023-01-17T07:43:12.210Z,977.38
2023-01-17T07:48:12.870Z,977.41
2023-01-17T07:53:13.545Z,977.47
2023-01-17T07:58:14.170Z,977.51
2023-01-17T08:03:14.839Z,977.56
2023-01-17T08:08:17.730Z,977.53
2023-01-17T08:13:16.448Z,977.61
2023-01-17T08:18:17.064Z,977.65
2023-01-17T08:23:17.729Z,977.64
2023-01-17T08:28:18.370Z,977.63
2023-01-17T08:33:19.036Z,977.78
2023-01-17T08:38:19.684Z,977.85
2023-01-17T08:43:20.332Z,977.93
2023-01-17T08:48:20.984Z,977.91
2023-01-17T08:53:21.687Z,978.01
2023-01-17T08:58:22.279Z,978.08
2023-01-17T09:03:22.940Z,978.11
2023-01-17T09:08:23.600Z,978.17
2023-01-17T09:13:24.269Z,978.24
2023-01-17T09:18:24.918Z,978.27
2023-01-17T09:23:25.558Z,978.36
2023-01-17T09:28:26.230Z,978.47
2023-01-17T09:33:26.884Z,978.51
2023-01-17T09:38:27.546Z,978.60
2023-01-17T09:43:29.110Z,978.73
2023-01-17T09:48:28.711Z,978.82
2023-01-17T09:53:29.361Z,979.06
2023-01-17T09:58:30.022Z,979.07
2023-01-17T10:03:30.799Z,979.17
2023-01-17T10:08:31.493Z,979.15
2023-01-17T10:13:32.119Z,979.23
2023-01-17T10:18:32.931Z,979.30
2023-01-17T10:23:33.522Z,979.42
2023-01-17T10:28:34.177Z,979.45
2023-01-17T10:33:34.856Z,979.55
2023-01-17T10:38:35.490Z,979.72
2023-01-17T10:43:36.139Z,979.74
2023-01-17T10:48:36.822Z,979.79
2023-01-17T10:53:37.455Z,979.83
2023-01-17T10:58:38.106Z,979.90
2023-01-17T11:03:38.760Z,979.96
2023-01-17T11:08:39.460Z,979.98
2023-01-17T11:13:40.081Z,980.06
2023-01-17T11:18:40.725Z,980.09
2023-01-17T11:23:41.417Z,980.16
2023-01-17T11:28:42.056Z,980.24
2023-01-17T11:33:42.765Z,980.26
2023-01-17T11:38:43.439Z,980.38
2023-01-17T11:43:44.097Z,980.50
2023-01-17T11:48:44.732Z,980.54
2023-01-17T11:53:45.391Z,980.57
2023-01-17T11:58:46.057Z,980.58
2023-01-17T12:03:46.821Z,980.57
2023-01-17T12:08:47.453Z,980.52
2023-01-17T12:13:48.095Z,980.50
2023-01-17T12:18:48.780Z,980.55
2023-01-17T12:23:49.415Z,980.62
2023-01-17T12:28:50.111Z,980.71
2023-01-17T12:33:50.806Z,980.77
2023-01-17T12:38:51.453Z,980.87
2023-01-17T12:43:52.118Z,980.94
2023-01-17T12:48:52.776Z,980.98
2023-01-17T12:53:53.514Z,981.06
2023-01-17T12:58:54.098Z,981.09
2023-01-17T13:03:57.552Z,981.17
2023-01-17T13:08:56.093Z,981.19
2023-01-17T13:14:02.787Z,981.22
2023-01-17T13:18:56.379Z,981.30
2023-01-17T13:23:57.031Z,981.32
2023-01-17T13:28:57.726Z,981.38
2023-01-17T13:33:58.408Z,981.45
2023-01-17T13:38:59.043Z,981.56
2023-01-17T13:43:59.829Z,981.62
2023-01-17T13:49:00.511Z,981.74
2023-01-17T13:54:01.184Z,981.79
2023-01-17T13:59:01.834Z,981.81
2023-01-17T14:04:02.556Z,981.80
2023-01-17T14:09:03.213Z,981.88
2023-01-17T14:14:03.931Z,981.96
2023-01-17T14:19:04.603Z,982.07
2023-01-17T14:24:05.272Z,982.20
2023-01-17T14:29:05.977Z,982.29
2023-01-17T14:34:06.671Z,982.38
2023-01-17T14:39:07.353Z,982.47
2023-01-17T14:44:08.022Z,982.52
2023-01-17T14:49:08.834Z,982.58
2023-01-17T14:54:09.499Z,982.65
2023-01-17T14:59:10.173Z,982.65
2023-01-17T15:04:10.893Z,982.65
2023-01-17T15:09:11.630Z,982.75
2023-01-17T15:14:12.346Z,982.81
2023-01-17T15:19:13.039Z,982.88
2023-01-17T15:24:13.884Z,982.93
2023-01-17T15:29:15.068Z,983.01
2023-01-17T15:34:15.352Z,983.01
2023-01-17T15:39:16.020Z,983.03
2023-01-17T15:44:16.694Z,983.03
2023-01-17T15:49:18.476Z,983.01
2023-01-17T15:54:18.146Z,983.07
2023-01-17T15:59:18.800Z,983.17
2023-01-17T16:04:19.676Z,983.20
2023-01-17T16:09:20.421Z,983.20
2023-01-17T16:14:21.142Z,983.24
2023-01-17T16:19:21.881Z,983.28
2023-01-17T16:24:22.579Z,983.29
2023-01-17T16:29:23.329Z,983.28
2023-01-17T16:34:24.029Z,983.24
2023-01-17T16:39:24.806Z,983.32
2023-01-17T16:44:25.526Z,983.43
2023-01-17T16:49:26.268Z,983.42
2023-01-17T16:54:27.013Z,983.45
2023-01-17T16:59:39.481Z,983.45
2023-01-17T17:04:29.365Z,983.44
2023-01-17T17:09:29.255Z,983.48
2023-01-17T17:14:29.931Z,983.52
2023-01-17T17:19:30.585Z,983.57
2023-01-17T17:24:31.418Z,983.63
2023-01-17T17:29:32.205Z,983.69
2023-01-17T17:34:32.896Z,983.77
2023-01-17T17:39:33.699Z,983.79
2023-01-17T17:44:34.387Z,983.80
2023-01-17T17:49:35.111Z,983.87
2023-01-17T17:54:35.868Z,983.90
2023-01-17T17:59:36.659Z,983.93
2023-01-17T18:04:37.357Z,984.03
2023-01-17T18:09:38.066Z,984.03
2023-01-17T18:14:38.782Z,984.03
2023-01-17T18:19:39.491Z,984.05
2023-01-17T18:24:40.232Z,984.06
2023-01-17T18:29:40.909Z,984.09
2023-01-17T18:34:41.654Z,984.07
2023-01-17T18:39:42.408Z,984.08
2023-01-17T18:44:43.197Z,984.09
2023-01-17T18:49:43.867Z,984.18
2023-01-17T18:54:44.584Z,984.19
2023-01-17T18:59:45.311Z,984.19
2023-01-17T19:04:47.110Z,984.30
2023-01-17T19:09:46.860Z,984.34
2023-01-17T19:14:47.622Z,984.28
2023-01-17T19:19:48.336Z,984.33
2023-01-17T19:24:49.101Z,984.43
2023-01-17T19:29:49.894Z,984.44
2023-01-17T19:34:50.591Z,984.44
2023-01-17T19:39:51.313Z,984.50
2023-01-17T19:44:52.107Z,984.51
2023-01-17T19:49:52.943Z,984.53
2023-01-17T19:54:53.666Z,984.54
2023-01-17T19:59:54.365Z,984.57
2023-01-17T20:04:55.117Z,984.58
2023-01-17T20:09:55.897Z,984.60
2023-01-17T20:14:56.596Z,984.60
2023-01-17T20:19:57.315Z,984.66
2023-01-17T20:24:59.198Z,984.64
2023-01-17T20:30:08.172Z,984.64
2023-01-17T20:35:00.509Z,984.61
2023-01-17T20:40:00.403Z,984.62
2023-01-17T20:45:01.281Z,984.70
2023-01-17T20:50:02.033Z,984.77
2023-01-17T20:55:02.777Z,984.87
2023-01-17T21:00:03.560Z,984.97
2023-01-17T21:05:04.373Z,985.04
2023-01-17T21:10:05.093Z,985.21
2023-01-17T21:15:05.918Z,985.35
2023-01-17T21:20:07.174Z,985.43
2023-01-17T21:25:07.377Z,985.46
2023-01-17T21:30:08.102Z,985.57
2023-01-17T21:35:08.829Z,985.66
2023-01-17T21:40:09.644Z,985.75
2023-01-17T21:45:10.388Z,985.85
2023-01-17T21:50:12.055Z,985.87
2023-01-17T21:55:11.803Z,985.91
2023-01-17T22:00:19.583Z,985.92
2023-01-17T22:05:13.250Z,985.99
2023-01-17T22:10:13.976Z,986.01
2023-01-17T22:15:14.689Z,986.01
2023-01-17T22:20:15.433Z,986.03
2023-01-17T22:25:16.162Z,985.97
2023-01-17T22:30:16.984Z,986.04
2023-01-17T22:35:17.711Z,986.04
2023-01-17T22:40:18.456Z,986.02
2023-01-17T22:45:19.170Z,986.01
2023-01-17T22:50:19.887Z,985.96
2023-01-17T22:55:20.643Z,985.90
2023-01-17T23:00:21.342Z,985.92
2023-01-17T23:05:22.068Z,985.93
2023-01-17T23:10:22.944Z,985.89
2023-01-17T23:15:23.663Z,985.86
2023-01-17T23:20:24.374Z,985.78
2023-01-17T23:25:25.119Z,985.71
2023-01-17T23:30:25.817Z,985.72
2023-01-17T23:35:26.557Z,985.74
2023-01-17T23:40:27.284Z,985.67
2023-01-17T23:45:28.723Z,985.58
2023-01-17T23:50:28.935Z,985.48
2023-01-17T23:55:29.651Z,985.48
